Waldo, Arkansas
Current Conditions -  °F | °C
As of 9:53 PM on Sunday 23 Nov 2014 (Local Time) from KELD Reporting Station
Clear Clear  
Wind Chill: 63°   Ceiling: Unl
Heat Index: 63°   Visibility: 10mi
Dew Point: 53°   Wind: 12mph
Humidity: 70%   Direction: 210°SSW
Pressure: 29.53"   Gusts: 21mph
Location:  33.35°N, 93.3°W
Report Text: KELD 240353Z AUTO 21010G18KT 10SM CLR 17/12 A2953 RMK AO2 SLP998 T01720117
Loading
Personal Weather Stations






























Interactive Weather Map New forecast layout! Learn more

10-Day Weather Forecast

Advertisements
Track Severe Weather on mobile